KCCA

Clinton Municipal Airport

Clinton, Arkansas, USA
METAR KCCA 180255Z AUTO 00000KT 1 1/4SM BR OVC003 08/08 A3012 RMK AO2
Observed Flight Rules
Dec-18 @ 02:55 UTC (23 minutes ago) Instrument Flight Rules
Wind Visibility Clouds Conditions
Calm 1 1/4 miles
  • Overcast at 300' AGL
  • Mist
Temperatures Readings
Current 8°C / 46°F
Dewpoint 8°C / 46°F
Humidity 100%
Altimeter 30.12" Hg
Pressure 1020 hPa
Elevation 157
METAR KCCA 180255Z AUTO 00000KT 1 1/4SM BR OVC003 08/08 A3012 RMK AO2
Observed Flight Rules
Dec-18 @ 02:55 UTC
(23 minutes ago)
LIFR
Wind Visibility
Calm 1 1/4 miles
Clouds
  • Overcast at 300' AGL
Conditions
  • Mist
Temperature Dewpoint
8°C / 46°F 8°C / 46°F
Humidity Altimeter Pressure
100% 30.12" Hg 1020 hPa